Time;durP1;ratioP1;P1;durP2;ratioP2;P2;SDS_P1;SDS_P2;PMS_P1;PMS_P2;Temp;Humidity;BMP_temperature;BMP_pressure;BME280_temperature;BME280_humidity;BME280_pressure;Samples;Min_cycle;Max_cycle;Signal;HPM_P1;HPM_P2
2022/07/28 00:01:22;;;;;;;6.35;6.05;;;;;;;13.48;74.94;101549.38;6032623;23;20083;-70
2022/07/28 00:03:48;;;;;;;4.82;4.63;;;;;;;14.12;74.92;101637.56;6003820;23;20010;-71
2022/07/28 00:06:15;;;;;;;6.10;5.80;;;;;;;14.47;74.96;101697.38;6033787;23;20023;-71
2022/07/28 00:08:43;;;;;;;4.90;4.70;;;;;;;14.52;74.75;101703.28;6029522;23;20084;-71
2022/07/28 00:11:10;;;;;;;5.63;5.38;;;;;;;13.90;74.34;101600.88;6020914;23;20013;-71
2022/07/28 00:13:36;;;;;;;4.70;4.50;;;;;;;14.22;74.58;101658.22;6019299;23;20028;-73
2022/07/28 00:16:03;;;;;;;4.53;4.32;;;;;;;14.48;74.93;101705.25;6031666;23;20512;-71
2022/07/28 00:18:30;;;;;;;4.60;4.40;;;;;;;14.31;74.73;101692.06;6017986;23;20566;-72
2022/07/28 00:20:56;;;;;;;4.57;4.38;;;;;;;13.88;74.44;101609.81;6039500;23;20027;-73
2022/07/28 00:23:23;;;;;;;5.82;5.53;;;;;;;14.41;75.19;101692.44;6020707;23;20107;-72
2022/07/28 00:26:06;;;;;;;4.90;4.70;;;;;;;14.12;74.19;101647.28;5995819;23;20035;-71
2022/07/28 00:28:32;;;;;;;4.90;4.70;;;;;;;13.85;75.06;101599.41;6014732;23;20011;-72
2022/07/28 00:30:58;;;;;;;4.70;4.50;;;;;;;13.94;74.81;101618.25;5995647;23;20070;-72
2022/07/28 00:33:34;;;;;;;4.78;4.57;;;;;;;14.36;75.46;101682.97;6006430;23;20855;-72
2022/07/28 00:36:00;;;;;;;4.70;4.50;;;;;;;14.10;75.09;101639.44;5998574;23;20067;-73
2022/07/28 00:38:27;;;;;;;5.00;4.80;;;;;;;14.32;75.64;101677.94;5995034;23;20017;-72
2022/07/28 00:41:12;;;;;;;5.00;4.80;;;;;;;13.95;76.15;101619.09;6021336;23;20016;-72
2022/07/28 00:43:41;;;;;;;4.70;4.50;;;;;;;14.28;76.01;101666.66;5976579;23;20102;-73
2022/07/28 00:46:08;;;;;;;4.53;4.32;;;;;;;14.26;76.78;101663.25;6026902;23;20015;-72
2022/07/28 00:48:41;;;;;;;4.80;4.60;;;;;;;14.14;76.35;101650.69;6035652;23;20023;-72
2022/07/28 00:51:08;;;;;;;5.45;5.20;;;;;;;14.23;76.56;101657.28;6032083;23;20377;-71
2022/07/28 00:53:36;;;;;;;4.95;4.75;;;;;;;14.19;77.05;101666.28;6009230;23;20073;-72
2022/07/28 00:56:04;;;;;;;4.80;4.60;;;;;;;13.14;77.07;101508.88;6016277;23;20038;-71
2022/07/28 00:58:34;;;;;;;4.80;4.60;;;;;;;13.80;77.02;101612.00;6036915;23;20688;-73
2022/07/28 01:01:00;;;;;;;4.80;4.60;;;;;;;13.92;77.51;101638.59;6030676;23;20015;-73
2022/07/28 01:03:28;;;;;;;5.05;4.82;;;;;;;13.59;77.14;101601.63;6025952;23;20105;-71
2022/07/28 01:06:16;;;;;;;4.70;4.50;;;;;;;13.96;78.17;101663.91;6030128;23;20022;-74
2022/07/28 01:09:12;;;;;;;4.78;4.57;;;;;;;13.50;78.03;101589.72;6071615;18;20006;-69
2022/07/28 01:11:55;;;;;;;4.70;4.50;;;;;;;13.71;78.48;101643.19;6019741;23;20030;-69
2022/07/28 01:14:35;;;;;;;6.00;5.70;;;;;;;13.80;79.48;101655.06;6039364;23;20053;-70
2022/07/28 01:17:10;;;;;;;4.70;4.50;;;;;;;13.73;79.58;101641.34;6007550;23;20017;-69
2022/07/28 01:19:57;;;;;;;4.68;4.47;;;;;;;13.67;79.36;101643.41;6001417;23;20507;-69
2022/07/28 01:22:28;;;;;;;5.45;5.25;;;;;;;13.45;79.62;101610.22;6015710;23;20447;-70
2022/07/28 01:25:23;;;;;;;4.57;4.38;;;;;;;13.64;80.13;101648.84;5995296;23;20027;-70
2022/07/28 01:28:09;;;;;;;4.65;4.45;;;;;;;13.49;80.31;101626.72;6025812;23;20060;-69
2022/07/28 01:30:42;;;;;;;4.60;4.40;;;;;;;13.03;79.81;101558.63;5990474;23;20082;-69
2022/07/28 01:33:17;;;;;;;5.45;5.25;;;;;;;13.60;79.44;101637.59;6007836;23;20011;-69
2022/07/28 01:35:50;;;;;;;4.70;4.50;;;;;;;13.67;79.21;101648.69;5995638;23;20049;-69
2022/07/28 01:38:19;;;;;;;6.18;5.88;;;;;;;13.49;79.21;101621.44;6021393;23;20042;-69
2022/07/28 01:40:46;;;;;;;4.78;4.57;;;;;;;13.57;79.42;101633.34;5995784;23;20401;-70
2022/07/28 01:43:19;;;;;;;5.72;5.45;;;;;;;13.09;79.34;101552.19;6026858;23;20011;-70
2022/07/28 01:45:46;;;;;;;4.80;4.60;;;;;;;13.54;79.20;101614.16;5994639;23;20406;-69
2022/07/28 01:48:16;;;;;;;6.03;5.72;;;;;;;13.70;79.19;101636.19;6020136;23;20097;-69
2022/07/28 01:50:43;;;;;;;4.60;4.40;;;;;;;13.68;79.07;101630.16;5999807;23;20110;-69
2022/07/28 01:53:12;;;;;;;6.25;5.95;;;;;;;13.74;78.96;101635.09;6016545;23;20023;-70
2022/07/28 01:55:42;;;;;;;5.07;4.88;;;;;;;13.57;79.04;101600.84;5996338;23;20029;-70
2022/07/28 01:58:11;;;;;;;5.10;4.90;;;;;;;13.76;79.03;101630.59;5993669;23;20015;-70
2022/07/28 02:00:39;;;;;;;5.40;5.10;;;;;;;13.76;79.23;101624.50;6023125;23;20354;-70
2022/07/28 02:03:07;;;;;;;4.65;4.45;;;;;;;13.69;80.12;101621.31;5997724;23;20079;-69
2022/07/28 02:05:36;;;;;;;4.68;4.47;;;;;;;13.65;80.07;101616.25;6022357;23;20015;-69
2022/07/28 02:08:04;;;;;;;4.97;4.78;;;;;;;13.53;80.24;101601.88;6003607;23;20023;-70
2022/07/28 02:10:33;;;;;;;4.80;4.50;;;;;;;13.55;81.86;101610.56;6034670;23;20033;-70
2022/07/28 02:13:01;;;;;;;4.60;4.40;;;;;;;13.52;83.07;101605.47;5994707;23;20031;-70
2022/07/28 02:15:29;;;;;;;5.10;4.90;;;;;;;13.52;83.44;101616.88;6030466;23;20046;-70
2022/07/28 02:17:57;;;;;;;4.80;4.60;;;;;;;13.49;83.71;101603.84;5993568;23;20015;-70
2022/07/28 02:20:24;;;;;;;4.85;4.65;;;;;;;13.48;83.33;101614.47;6016923;23;20147;-70
2022/07/28 02:22:52;;;;;;;4.70;4.50;;;;;;;13.44;84.37;101608.50;5998942;23;20082;-70
2022/07/28 02:25:20;;;;;;;6.05;5.75;;;;;;;13.23;83.66;101577.88;6020484;23;20018;-70
2022/07/28 02:27:55;;;;;;;4.50;4.30;;;;;;;13.10;84.13;101570.56;5998754;23;20480;-69
2022/07/28 02:30:40;;;;;;;5.97;5.68;;;;;;;13.13;85.55;101598.59;5994817;23;20015;-70
2022/07/28 02:33:13;;;;;;;5.00;4.80;;;;;;;13.23;85.86;101598.97;5980632;23;20019;-69
2022/07/28 02:35:48;;;;;;;;;;;;;;;13.20;86.12;101591.22;6026220;23;20452;-69
2022/07/28 02:38:27;;;;;;;5.90;5.63;;;;;;;13.17;85.53;101595.72;5959085;23;19981;-70
2022/07/28 02:40:58;;;;;;;4.70;4.50;;;;;;;13.13;85.57;101595.94;6021494;23;20025;-70
2022/07/28 02:43:27;;;;;;;5.35;5.15;;;;;;;13.05;85.56;101577.88;5998141;23;20038;-70
2022/07/28 02:46:29;;;;;;;6.07;5.78;;;;;;;13.06;85.60;101590.09;6022255;23;20073;-70
2022/07/28 02:49:04;;;;;;;4.80;4.60;;;;;;;13.01;86.06;101585.97;5992298;23;20034;-70
2022/07/28 02:51:33;;;;;;;4.60;4.40;;;;;;;12.63;85.82;101542.13;5988789;23;20065;-70
2022/07/28 02:54:00;;;;;;;4.72;4.53;;;;;;;12.82;87.24;101583.38;5992777;23;20219;-70
2022/07/28 02:56:28;;;;;;;4.90;4.70;;;;;;;12.71;87.99;101582.09;6020006;23;20488;-70
2022/07/28 02:58:56;;;;;;;4.63;4.43;;;;;;;12.62;88.81;101585.16;5997009;23;20011;-70
2022/07/28 03:01:24;;;;;;;6.07;5.78;;;;;;;12.57;88.86;101577.47;6020164;23;20019;-69
2022/07/28 03:03:50;;;;;;;4.80;4.60;;;;;;;12.38;87.89;101566.94;6007813;23;20030;-69
2022/07/28 03:06:22;;;;;;;6.20;5.90;;;;;;;12.38;88.47;101580.09;6024636;23;20050;-69
2022/07/28 03:08:54;;;;;;;4.70;4.50;;;;;;;12.33;89.30;101579.47;5991884;23;20023;-69
2022/07/28 03:11:21;;;;;;;5.97;5.68;;;;;;;12.16;89.75;101559.16;6019487;23;20013;-70
2022/07/28 03:13:47;;;;;;;4.57;4.38;;;;;;;12.24;89.72;101582.50;5987109;23;20035;-69
2022/07/28 03:16:14;;;;;;;4.80;4.60;;;;;;;12.20;90.10;101580.94;6027025;23;20081;-70
2022/07/28 03:18:40;;;;;;;17.10;16.30;;;;;;;12.14;89.72;101573.31;5941658;23;20395;-69
2022/07/28 03:21:07;;;;;;;4.68;4.47;;;;;;;11.83;89.51;101522.03;5950367;23;20229;-69
2022/07/28 03:23:37;;;;;;;4.60;4.40;;;;;;;12.11;90.23;101578.72;6013616;23;20015;-69
2022/07/28 03:26:31;;;;;;;4.50;4.30;;;;;;;11.87;91.14;101547.28;6026010;23;20022;-70
2022/07/28 03:28:59;;;;;;;4.57;4.38;;;;;;;11.99;93.67;101585.38;6001975;23;20074;-69
2022/07/28 03:31:26;;;;;;;4.80;4.60;;;;;;;11.93;93.81;101586.50;6024795;23;20094;-70
2022/07/28 03:33:53;;;;;;;4.50;4.30;;;;;;;11.82;94.27;101580.81;5993375;23;20015;-69
2022/07/28 03:36:28;;;;;;;6.10;5.80;;;;;;;11.78;94.93;101592.38;6023836;23;20041;-70
2022/07/28 03:39:01;;;;;;;4.75;4.55;;;;;;;11.75;94.91;101584.63;5994607;23;20365;-70
2022/07/28 03:41:28;;;;;;;4.97;4.68;;;;;;;11.55;94.65;101565.28;6028761;23;20449;-69
2022/07/28 03:43:57;;;;;;;4.40;4.20;;;;;;;11.69;96.08;101591.00;5995691;23;20435;-70
2022/07/28 03:46:25;;;;;;;5.45;5.25;;;;;;;11.68;97.43;101581.41;6015055;23;20507;-70
2022/07/28 03:48:52;;;;;;;4.50;4.30;;;;;;;11.48;97.86;101553.31;6002905;23;20019;-69
2022/07/28 03:51:19;;;;;;;5.85;5.57;;;;;;;11.50;97.61;101556.75;5995385;23;20023;-69
2022/07/28 03:53:46;;;;;;;4.90;4.70;;;;;;;11.32;97.42;101545.22;6004067;23;20040;-69
2022/07/28 03:56:12;;;;;;;5.60;5.40;;;;;;;11.54;97.83;101568.81;5995777;23;20322;-69
2022/07/28 03:58:38;;;;;;;4.57;4.38;;;;;;;11.42;97.57;101545.69;6022267;23;20472;-69
2022/07/28 04:01:05;;;;;;;4.43;4.22;;;;;;;11.64;98.19;101585.06;6022689;23;20011;-69
2022/07/28 04:03:32;;;;;;;4.50;4.30;;;;;;;11.66;97.50;101577.13;6000528;23;20351;-70
2022/07/28 04:06:10;;;;;;;5.25;5.05;;;;;;;11.53;97.86;101551.38;5995663;23;20042;-69
2022/07/28 04:08:37;;;;;;;4.30;4.10;;;;;;;11.71;97.88;101575.16;6021361;23;20019;-70
2022/07/28 04:11:04;;;;;;;4.60;4.40;;;;;;;11.64;97.41;101547.41;5996593;23;20350;-70
2022/07/28 04:13:31;;;;;;;4.50;4.30;;;;;;;11.52;96.97;101509.38;6023984;23;20085;-69
2022/07/28 04:15:59;;;;;;;4.50;4.30;;;;;;;11.91;97.06;101554.16;5998294;23;20094;-70
2022/07/28 04:18:25;;;;;;;5.22;5.03;;;;;;;12.01;95.79;101525.66;6026582;23;20338;-69
2022/07/28 04:20:52;;;;;;;4.60;4.40;;;;;;;12.43;93.70;101547.44;6008700;23;20096;-70
2022/07/28 04:23:19;;;;;;;5.75;5.53;;;;;;;12.65;91.61;101519.19;6023588;23;20034;-70
2022/07/28 04:25:46;;;;;;;4.43;4.22;;;;;;;13.01;89.05;101484.09;6000823;23;20453;-69
2022/07/28 04:28:12;;;;;;;5.50;5.30;;;;;;;13.85;86.08;101530.81;6023814;23;20015;-69
2022/07/28 04:30:39;;;;;;;4.55;4.35;;;;;;;14.33;82.45;101534.38;5972292;23;20015;-70
2022/07/28 04:33:09;;;;;;;5.00;4.80;;;;;;;14.18;80.67;101543.16;6015981;23;20040;-69
2022/07/28 04:35:36;;;;;;;5.05;4.85;;;;;;;14.01;81.11;101544.91;5996878;23;20196;-70
2022/07/28 04:38:03;;;;;;;4.90;4.68;;;;;;;13.86;82.30;101519.34;6028018;23;20044;-70
2022/07/28 04:40:29;;;;;;;4.80;4.60;;;;;;;14.25;81.59;101547.16;5995519;23;20035;-70
2022/07/28 04:42:56;;;;;;;4.70;4.50;;;;;;;14.63;80.69;101538.94;6023013;23;20086;-70
2022/07/28 04:45:22;;;;;;;6.47;6.18;;;;;;;14.96;78.27;101531.75;5998147;23;20086;-70
2022/07/28 04:47:50;;;;;;;4.70;4.50;;;;;;;15.23;76.53;101523.16;6013169;23;20440;-70
2022/07/28 04:50:19;;;;;;;4.70;4.50;;;;;;;15.26;74.66;101523.00;5998623;23;20023;-70
2022/07/28 04:52:48;;;;;;;5.00;4.80;;;;;;;15.93;74.17;101522.56;6021234;23;20030;-70
2022/07/28 04:55:16;;;;;;;5.95;5.65;;;;;;;16.11;72.79;101517.91;5995319;23;20022;-70
2022/07/28 04:57:42;;;;;;;4.97;4.78;;;;;;;15.74;72.87;101531.63;6035933;23;20475;-69
2022/07/28 05:00:12;;;;;;;5.90;5.63;;;;;;;15.12;74.88;101496.53;6005008;23;20038;-69
2022/07/28 05:02:40;;;;;;;5.10;4.90;;;;;;;15.17;76.12;101542.03;6003210;23;20085;-70
2022/07/28 05:05:08;;;;;;;5.03;4.82;;;;;;;15.30;75.69;101534.25;5978248;23;20122;-70
2022/07/28 05:07:36;;;;;;;4.70;4.50;;;;;;;15.87;74.36;101522.94;6027717;23;20015;-70
2022/07/28 05:10:05;;;;;;;5.00;4.80;;;;;;;16.55;72.30;101506.31;6001551;23;20098;-70
2022/07/28 05:12:31;;;;;;;5.18;4.90;;;;;;;17.14;69.38;101508.69;6014922;23;21085;-70
2022/07/28 05:14:58;;;;;;;5.10;4.90;;;;;;;17.46;66.82;101479.09;5991705;23;20035;-70
2022/07/28 05:17:26;;;;;;;5.20;5.00;;;;;;;17.75;64.45;101477.06;5994925;23;20019;-70
2022/07/28 05:19:52;;;;;;;5.20;5.00;;;;;;;18.01;63.89;101491.19;6038753;23;20037;-70
2022/07/28 05:22:19;;;;;;;6.25;5.95;;;;;;;18.69;62.39;101487.16;5979587;23;20018;-69
2022/07/28 05:24:45;;;;;;;5.50;5.30;;;;;;;18.61;60.09;101481.56;6019852;23;20348;-70
2022/07/28 05:27:12;;;;;;;6.63;6.32;;;;;;;18.23;60.60;101461.28;5972577;23;20015;-70
2022/07/28 05:29:40;;;;;;;5.35;5.15;;;;;;;18.24;61.56;101529.44;6011345;23;20019;-69
2022/07/28 05:32:13;;;;;;;6.85;6.55;;;;;;;18.72;59.25;101417.81;5981736;23;20043;-69
2022/07/28 05:34:43;;;;;;;5.88;5.55;;;;;;;19.40;58.12;101492.50;6025168;23;20026;-70
2022/07/28 05:37:10;;;;;;;6.70;6.40;;;;;;;19.09;56.26;101446.97;5991685;23;20090;-70
2022/07/28 05:39:37;;;;;;;5.90;5.53;;;;;;;18.58;58.39;101512.84;6024504;23;20023;-70
2022/07/28 05:42:03;;;;;;;5.70;5.40;;;;;;;17.96;60.97;101508.41;5992253;23;20434;-70
2022/07/28 05:44:30;;;;;;;6.00;5.10;;;;;;;17.49;62.87;101545.22;6023723;23;20046;-70
2022/07/28 05:47:03;;;;;;;5.70;5.40;;;;;;;17.26;65.32;101552.06;5990246;23;20402;-70
2022/07/28 05:49:30;;;;;;;5.50;5.30;;;;;;;17.08;64.87;101554.16;6016987;23;20613;-69
2022/07/28 05:51:56;;;;;;;5.30;5.10;;;;;;;17.00;66.18;101536.13;5995248;23;20398;-69
2022/07/28 05:54:23;;;;;;;6.68;6.38;;;;;;;16.19;65.70;101412.34;6020974;23;20251;-69
2022/07/28 05:56:50;;;;;;;5.43;5.22;;;;;;;16.46;67.71;101528.09;5995303;23;20023;-69
2022/07/28 05:59:16;;;;;;;6.95;6.65;;;;;;;16.24;68.23;101518.88;6021667;23;20098;-69
2022/07/28 06:01:43;;;;;;;5.45;5.20;;;;;;;16.24;68.27;101558.59;5998682;23;20035;-69
2022/07/28 06:04:09;;;;;;;6.32;6.03;;;;;;;15.95;70.57;101553.28;6021831;23;20096;-69
2022/07/28 06:06:53;;;;;;;5.65;5.35;;;;;;;16.06;71.36;101538.56;5986575;23;20030;-69
2022/07/28 06:09:19;;;;;;;6.97;6.57;;;;;;;16.10;70.09;101545.34;5987362;23;20078;-69
2022/07/28 06:11:46;;;;;;;5.00;4.80;;;;;;;15.89;70.06;101513.94;6023937;23;20132;-69
2022/07/28 06:14:12;;;;;;;6.47;6.18;;;;;;;16.18;69.62;101500.72;5988697;23;20519;-69
2022/07/28 06:16:39;;;;;;;5.18;4.97;;;;;;;16.57;67.62;101487.66;6024527;23;20038;-69
2022/07/28 06:19:06;;;;;;;5.15;4.95;;;;;;;17.05;65.65;101527.84;5987825;23;20019;-69
2022/07/28 06:21:32;;;;;;;5.20;5.00;;;;;;;17.13;64.67;101526.38;6022955;23;20106;-69
2022/07/28 06:23:59;;;;;;;5.53;5.32;;;;;;;17.18;64.78;101523.44;5969964;23;20398;-69
2022/07/28 06:26:25;;;;;;;5.97;5.68;;;;;;;17.00;65.18;101521.97;6016704;23;20401;-69
2022/07/28 06:28:51;;;;;;;5.50;5.28;;;;;;;17.00;65.56;101517.53;5995133;23;20768;-68
2022/07/28 06:31:18;;;;;;;5.53;5.10;;;;;;;16.79;65.74;101556.88;6001444;23;20269;-69
2022/07/28 06:33:44;;;;;;;5.22;5.03;;;;;;;16.59;65.22;101488.41;6004101;23;20066;-69
2022/07/28 06:36:11;;;;;;;4.82;4.63;;;;;;;16.93;65.43;101530.34;6029960;23;20200;-69
2022/07/28 06:38:37;;;;;;;5.40;5.20;;;;;;;16.50;65.30;101493.34;5995017;23;20031;-69
2022/07/28 06:41:04;;;;;;;5.20;5.00;;;;;;;17.10;65.26;101531.91;6016086;23;20047;-69
2022/07/28 06:43:31;;;;;;;5.47;5.18;;;;;;;17.25;62.94;101470.81;5997026;23;20533;-70
2022/07/28 06:46:04;;;;;;;5.90;5.60;;;;;;;17.79;62.93;101509.56;5987766;23;20438;-70
2022/07/28 06:48:30;;;;;;;5.38;5.18;;;;;;;17.49;62.50;101500.13;6004811;23;20670;-70
2022/07/28 06:50:58;;;;;;;6.55;6.25;;;;;;;17.45;63.15;101520.69;5985167;23;20432;-70
2022/07/28 06:53:25;;;;;;;5.30;5.10;;;;;;;17.43;63.15;101511.16;6000686;23;20052;-70
2022/07/28 06:55:59;;;;;;;6.70;6.40;;;;;;;17.53;62.67;101534.28;5992350;23;20453;-69
2022/07/28 06:58:25;;;;;;;5.18;4.97;;;;;;;17.82;61.67;101527.94;6000594;23;20056;-70
2022/07/28 07:00:52;;;;;;;6.45;6.15;;;;;;;17.88;62.14;101533.72;5995526;23;20029;-69
2022/07/28 07:03:18;;;;;;;5.25;4.97;;;;;;;18.02;60.96;101521.25;5998808;23;20448;-69
2022/07/28 07:05:45;;;;;;;5.70;5.40;;;;;;;18.28;60.59;101514.97;5993373;23;20039;-69
2022/07/28 07:08:16;;;;;;;5.40;5.20;;;;;;;17.57;60.53;101366.88;6021924;23;20026;-69
2022/07/28 07:10:43;;;;;;;5.10;4.90;;;;;;;18.39;59.87;101521.31;6001061;23;20053;-69
2022/07/28 07:13:09;;;;;;;5.93;5.50;;;;;;;18.07;60.44;101519.13;5996717;23;20027;-69
2022/07/28 07:15:39;;;;;;;4.97;4.78;;;;;;;18.52;59.94;101508.81;5998727;23;20288;-69
2022/07/28 07:18:05;;;;;;;5.53;5.28;;;;;;;18.68;59.16;101497.91;6022753;23;20050;-68
2022/07/28 07:20:32;;;;;;;5.50;5.30;;;;;;;18.37;59.73;101516.09;5993846;23;20082;-69
2022/07/28 07:22:58;;;;;;;7.00;6.45;;;;;;;18.62;59.02;101506.34;5995716;23;20027;-68
2022/07/28 07:25:24;;;;;;;5.30;5.10;;;;;;;17.37;59.11;101345.25;6024508;23;20471;-69
2022/07/28 07:27:51;;;;;;;7.15;6.55;;;;;;;18.79;58.78;101500.66;5995519;23;20286;-69
2022/07/28 07:30:17;;;;;;;5.50;5.20;;;;;;;18.70;58.17;101446.34;6023099;23;20019;-69
2022/07/28 07:32:44;;;;;;;5.22;5.03;;;;;;;18.83;57.42;101499.47;5998114;23;20089;-69
2022/07/28 07:35:11;;;;;;;5.30;5.10;;;;;;;19.06;57.75;101492.44;6027033;23;20391;-69
2022/07/28 07:37:37;;;;;;;5.70;5.40;;;;;;;18.40;58.85;101443.25;5991784;23;20015;-69
2022/07/28 07:40:05;;;;;;;6.00;5.70;;;;;;;18.90;57.64;101479.44;6019441;23;20042;-69
2022/07/28 07:42:32;;;;;;;5.30;5.10;;;;;;;18.91;57.66;101497.09;5973428;23;20043;-69
2022/07/28 07:44:58;;;;;;;6.15;5.85;;;;;;;19.13;57.21;101483.00;5993434;23;20377;-69
2022/07/28 07:47:25;;;;;;;5.38;5.07;;;;;;;18.82;57.08;101465.88;6023196;23;20026;-70
2022/07/28 07:49:51;;;;;;;6.95;6.65;;;;;;;19.01;56.64;101497.25;5996118;23;20029;-70
2022/07/28 07:52:18;;;;;;;6.70;6.40;;;;;;;18.95;56.89;101460.47;6020492;23;20109;-70
2022/07/28 07:54:44;;;;;;;6.43;5.93;;;;;;;19.32;57.52;101487.78;5996173;23;20430;-70
2022/07/28 07:57:11;;;;;;;5.38;5.18;;;;;;;18.94;57.34;101496.00;6021481;23;20019;-70
2022/07/28 07:59:37;;;;;;;5.38;5.10;;;;;;;18.89;57.76;101488.38;5994556;23;20015;-68
2022/07/28 08:02:04;;;;;;;5.05;4.85;;;;;;;18.87;57.54;101489.47;6024677;23;20090;-70
2022/07/28 08:04:31;;;;;;;5.63;5.32;;;;;;;18.91;58.33;101494.41;5994047;23;20554;-69
2022/07/28 08:07:03;;;;;;;5.97;5.68;;;;;;;19.14;57.26;101457.25;6021223;23;20093;-69
2022/07/28 08:09:31;;;;;;;5.55;4.90;;;;;;;19.50;56.62;101469.56;5998447;23;20204;-69
2022/07/28 08:11:57;;;;;;;6.57;6.28;;;;;;;19.59;55.55;101464.47;6020836;23;20027;-69
2022/07/28 08:14:24;;;;;;;5.15;4.95;;;;;;;19.56;55.14;101460.22;5973082;23;20047;-69
2022/07/28 08:16:51;;;;;;;6.65;6.35;;;;;;;19.77;55.33;101468.38;6019549;23;20054;-69
2022/07/28 08:19:17;;;;;;;5.30;5.10;;;;;;;19.39;55.68;101445.56;5994272;23;20425;-70
2022/07/28 08:21:47;;;;;;;6.68;6.38;;;;;;;19.78;55.40;101456.75;6015326;23;20526;-69
2022/07/28 08:24:14;;;;;;;5.30;5.10;;;;;;;19.81;55.02;101437.88;6003982;23;20018;-70
2022/07/28 08:27:00;;;;;;;5.40;5.20;;;;;;;19.93;53.36;101431.56;6021501;23;20094;-68
2022/07/28 08:29:26;;;;;;;5.30;5.10;;;;;;;19.84;53.94;101479.41;5999222;23;20357;-70
2022/07/28 08:31:53;;;;;;;5.63;5.25;;;;;;;20.16;54.06;101439.50;6021083;23;20027;-69
2022/07/28 08:34:19;;;;;;;5.25;5.03;;;;;;;20.40;53.84;101428.66;5972913;23;20084;-69
2022/07/28 08:37:03;;;;;;;5.70;5.45;;;;;;;20.45;52.67;101430.97;6022464;23;20106;-69
2022/07/28 08:39:31;;;;;;;6.25;5.78;;;;;;;20.16;52.38;101430.69;5996731;23;20090;-70
2022/07/28 08:42:01;;;;;;;5.50;5.30;;;;;;;19.98;53.49;101430.34;6022703;23;20114;-70
2022/07/28 08:44:52;;;;;;;5.20;5.00;;;;;;;20.45;53.23;101425.63;5967607;23;20304;-70
2022/07/28 08:47:19;;;;;;;5.35;5.15;;;;;;;20.51;50.82;101423.31;5995680;23;20055;-69
2022/07/28 08:49:48;;;;;;;6.28;5.97;;;;;;;20.80;50.94;101419.22;5996288;23;20286;-70
2022/07/28 08:52:18;;;;;;;5.18;4.97;;;;;;;20.87;48.81;101388.38;5998933;23;20291;-69
2022/07/28 08:54:47;;;;;;;6.53;6.22;;;;;;;20.72;48.59;101391.34;6017986;23;20033;-69
2022/07/28 08:57:21;;;;;;;5.60;5.40;;;;;;;20.58;48.54;101422.78;5988882;23;20015;-69
2022/07/28 08:59:48;;;;;;;5.63;5.43;;;;;;;20.57;48.53;101426.41;6023864;23;20037;-69
2022/07/28 09:02:15;;;;;;;5.50;5.20;;;;;;;20.90;47.17;101425.47;5967965;23;20142;-69
2022/07/28 09:04:45;;;;;;;6.97;6.57;;;;;;;20.49;46.50;101411.09;6024254;23;20114;-70
2022/07/28 09:07:12;;;;;;;5.38;5.18;;;;;;;20.84;47.36;101418.81;5987037;23;20032;-70
2022/07/28 09:09:39;;;;;;;6.35;6.05;;;;;;;20.79;46.96;101422.84;6018597;23;20393;-70
2022/07/28 09:12:05;;;;;;;5.18;4.97;;;;;;;21.00;45.91;101420.19;5996945;23;20098;-70
2022/07/28 09:14:33;;;;;;;5.93;5.68;;;;;;;20.29;46.57;101250.13;6018456;23;20288;-70
2022/07/28 09:17:00;;;;;;;5.35;5.15;;;;;;;21.41;44.91;101405.97;5992375;23;20017;-69
2022/07/28 09:19:28;;;;;;;5.40;5.20;;;;;;;21.68;43.74;101410.72;5996525;23;20023;-70
2022/07/28 09:21:59;;;;;;;5.40;5.20;;;;;;;21.62;44.28;101408.59;5997003;23;20023;-69
2022/07/28 09:24:38;;;;;;;5.20;5.00;;;;;;;21.83;44.85;101395.19;5997045;23;20387;-70
2022/07/28 09:27:10;;;;;;;5.55;5.35;;;;;;;21.75;44.28;101402.19;5995715;23;20459;-69
2022/07/28 09:29:38;;;;;;;7.22;6.82;;;;;;;21.73;43.84;101413.03;5991914;23;20283;-69
2022/07/28 09:32:06;;;;;;;5.30;5.10;;;;;;;21.68;42.69;101423.25;6000942;23;20042;-69
2022/07/28 09:34:42;;;;;;;5.57;5.38;;;;;;;21.37;43.55;101385.84;6002837;23;20015;-69
2022/07/28 09:37:26;;;;;;;5.30;5.10;;;;;;;21.61;42.80;101416.75;5995185;23;20511;-70
2022/07/28 09:39:59;;;;;;;5.50;5.30;;;;;;;21.85;43.23;101395.91;6019195;23;20098;-70
2022/07/28 09:42:44;;;;;;;5.40;5.20;;;;;;;20.95;43.36;101249.81;5993833;23;20508;-69
2022/07/28 09:45:11;;;;;;;5.57;5.32;;;;;;;22.18;42.01;101399.19;6014921;23;20027;-69
2022/07/28 09:47:48;;;;;;;5.82;5.57;;;;;;;;;;5995910;23;20014;-69
2022/07/28 09:50:26;;;;;;;5.68;5.38;;;;;;;22.37;42.72;101384.16;6015783;23;20014;-69
2022/07/28 09:52:53;;;;;;;6.90;6.45;;;;;;;22.81;42.99;101377.41;5987991;23;20111;-69
2022/07/28 09:55:20;;;;;;;7.28;6.97;;;;;;;22.68;42.31;101388.38;5996465;23;20026;-69
2022/07/28 09:57:46;;;;;;;5.72;5.47;;;;;;;22.38;42.44;101392.06;6015325;23;20034;-69
2022/07/28 10:00:27;;;;;;;5.40;5.20;;;;;;;22.19;41.24;101400.88;5996303;23;20465;-69
2022/07/28 10:02:54;;;;;;;6.70;6.40;;;;;;;22.12;42.63;101367.66;5975058;23;20023;-69
2022/07/28 10:05:20;;;;;;;5.60;5.40;;;;;;;22.08;41.25;101353.72;6018555;23;20090;-69
2022/07/28 10:07:51;;;;;;;5.75;5.50;;;;;;;22.34;41.17;101392.50;5969347;23;20120;-69
2022/07/28 10:10:20;;;;;;;5.43;5.22;;;;;;;22.15;43.20;101366.53;6019252;23;20181;-68
2022/07/28 10:12:47;;;;;;;6.13;5.85;;;;;;;22.14;41.93;101336.28;5995374;23;20049;-69
2022/07/28 10:18:01;;;;;;;6.43;6.13;;;;;;;22.46;41.88;101372.63;5984332;23;20463;-73
2022/07/28 10:20:28;;;;;;;5.90;5.60;;;;;;;21.58;42.35;101219.38;6024245;23;20057;-72
2022/07/28 10:23:02;;;;;;;6.60;6.30;;;;;;;22.92;41.72;101364.84;5986277;23;20023;-72
2022/07/28 10:25:31;;;;;;;5.60;5.40;;;;;;;23.25;42.08;101355.47;5988925;23;20027;-70
2022/07/28 10:27:59;;;;;;;6.68;6.35;;;;;;;23.04;40.90;101350.31;6022570;23;20436;-71
2022/07/28 10:30:33;;;;;;;5.38;5.15;;;;;;;23.19;41.38;101350.69;5992726;23;20019;-71
2022/07/28 10:33:03;;;;;;;6.40;6.10;;;;;;;23.04;40.74;101356.50;5993513;23;20018;-71
2022/07/28 10:35:31;;;;;;;5.45;5.22;;;;;;;23.09;41.06;101354.25;6029801;23;20575;-70
2022/07/28 10:38:15;;;;;;;5.50;5.30;;;;;;;22.95;42.63;101354.66;5988200;23;20086;-71
2022/07/28 10:40:45;;;;;;;5.32;5.10;;;;;;;23.03;41.04;101311.16;6001477;23;20031;-70
2022/07/28 10:43:12;;;;;;;5.63;5.32;;;;;;;23.09;40.99;101334.66;6029355;23;20014;-70
2022/07/28 10:45:39;;;;;;;5.90;5.63;;;;;;;22.95;41.06;101354.66;6001497;23;20051;-72
2022/07/28 10:48:26;;;;;;;5.40;5.20;;;;;;;23.36;40.02;101325.81;6026538;23;20018;-72
2022/07/28 10:50:53;;;;;;;6.57;6.28;;;;;;;23.78;39.78;101333.38;5997670;23;20539;-71
2022/07/28 10:53:36;;;;;;;5.60;5.30;;;;;;;24.03;40.75;101328.25;6027255;23;20085;-72
2022/07/28 10:56:13;;;;;;;5.78;5.47;;;;;;;24.26;39.48;101321.44;5997764;23;20027;-72
2022/07/28 10:59:02;;;;;;;5.25;5.05;;;;;;;24.17;40.27;101322.34;6014101;23;20102;-72
2022/07/28 11:01:36;;;;;;;6.00;5.70;;;;;;;23.97;41.02;101332.38;5993597;23;20361;-70
2022/07/28 11:04:39;;;;;;;5.32;5.13;;;;;;;23.49;40.00;101345.06;6022165;23;20447;-71
2022/07/28 11:07:15;;;;;;;5.43;5.22;;;;;;;23.28;40.71;101321.19;5996378;23;20358;-71
2022/07/28 11:09:43;;;;;;;5.50;5.20;;;;;;;23.72;39.90;101323.22;5997835;23;20083;-72
2022/07/28 11:12:14;;;;;;;5.45;5.25;;;;;;;24.13;39.74;101329.00;6029825;23;20062;-72
2022/07/28 11:14:41;;;;;;;5.20;5.00;;;;;;;23.98;39.69;101333.25;5998842;23;20074;-70
2022/07/28 11:17:09;;;;;;;5.60;5.35;;;;;;;24.13;40.06;101326.34;6015333;23;20038;-71
2022/07/28 11:19:36;;;;;;;5.40;5.20;;;;;;;24.13;38.71;101334.38;5978933;23;20051;-71
2022/07/28 11:22:26;;;;;;;5.50;5.30;;;;;;;24.35;38.58;101325.03;6018799;23;20335;-72
2022/07/28 11:24:56;;;;;;;6.40;6.10;;;;;;;24.12;39.42;101338.06;5996580;23;20393;-71
2022/07/28 11:27:38;;;;;;;5.88;5.57;;;;;;;24.05;39.71;101334.31;6030092;23;20011;-72
2022/07/28 11:30:05;;;;;;;5.50;5.30;;;;;;;24.04;38.40;101312.00;5995110;23;20066;-71
2022/07/28 11:32:50;;;;;;;5.85;5.55;;;;;;;24.34;39.35;101311.78;6008828;23;20038;-71
2022/07/28 11:35:17;;;;;;;5.40;5.20;;;;;;;24.15;38.48;101351.16;5992331;23;20452;-70
2022/07/28 11:37:59;;;;;;;5.63;5.32;;;;;;;24.66;39.59;101316.59;6000588;23;20441;-70
2022/07/28 11:40:32;;;;;;;5.75;5.47;;;;;;;24.80;37.86;101315.16;5998848;23;20023;-72
2022/07/28 11:43:24;;;;;;;6.70;6.40;;;;;;;24.74;38.19;101307.75;6020251;23;20097;-72